Time;durP1;ratioP1;P1;durP2;ratioP2;P2;SDS_P1;SDS_P2;PMS_P1;PMS_P2;Temp;Humidity;BMP_temperature;BMP_pressure;BME280_temperature;BME280_humidity;BME280_pressure;Samples;Min_cycle;Max_cycle;Signal;HPM_P1;HPM_P2
2020/12/29 00:01:39;;;;;;;13.27;6.18;;;6.80;99.90;;;;;;5071490;28;20104;-76
2020/12/29 00:04:07;;;;;;;11.52;6.38;;;6.80;99.90;;;;;;5071667;28;20111;-75
2020/12/29 00:06:33;;;;;;;10.05;5.80;;;6.80;99.90;;;;;;5071422;28;20020;-76
2020/12/29 00:08:59;;;;;;;11.25;5.55;;;6.70;99.90;;;;;;5073018;28;20035;-75
2020/12/29 00:11:25;;;;;;;12.52;6.07;;;6.70;99.90;;;;;;5071167;28;20312;-75
2020/12/29 00:13:52;;;;;;;12.43;5.82;;;6.80;99.90;;;;;;5071271;28;20033;-75
2020/12/29 00:16:18;;;;;;;11.00;6.55;;;6.70;99.90;;;;;;5071251;28;20060;-75
2020/12/29 00:18:43;;;;;;;14.52;5.90;;;6.60;99.90;;;;;;5072469;28;20036;-75
2020/12/29 00:21:17;;;;;;;12.43;6.32;;;6.60;99.90;;;;;;5075250;28;20028;-75
2020/12/29 00:23:43;;;;;;;9.32;5.50;;;6.70;99.90;;;;;;5076675;28;20503;-76
2020/12/29 00:26:09;;;;;;;12.98;6.55;;;6.70;99.90;;;;;;5075333;28;20040;-75
2020/12/29 00:28:34;;;;;;;9.95;5.90;;;6.70;99.90;;;;;;5073883;28;20028;-76
2020/12/29 00:31:00;;;;;;;11.27;6.18;;;6.70;99.90;;;;;;5074870;28;20028;-75
2020/12/29 00:33:26;;;;;;;10.40;6.35;;;6.70;99.90;;;;;;5074010;28;20032;-75
2020/12/29 00:35:51;;;;;;;10.73;6.28;;;6.70;99.90;;;;;;5076082;28;20044;-75
2020/12/29 00:38:17;;;;;;;10.13;6.07;;;6.70;99.90;;;;;;5074931;28;20047;-76
2020/12/29 00:40:43;;;;;;;10.32;5.72;;;6.70;99.90;;;;;;5074657;28;20036;-76
2020/12/29 00:43:08;;;;;;;9.55;5.22;;;6.60;99.90;;;;;;5074578;28;20031;-74
2020/12/29 00:45:34;;;;;;;11.52;5.97;;;6.60;99.90;;;;;;5074441;28;20107;-76
2020/12/29 00:47:59;;;;;;;11.40;5.93;;;6.70;99.90;;;;;;5076007;28;20025;-76
2020/12/29 00:50:25;;;;;;;8.73;6.00;;;6.60;99.90;;;;;;5055085;28;20039;-77
2020/12/29 00:52:51;;;;;;;12.80;6.68;;;6.60;99.90;;;;;;5069343;28;20055;-76
2020/12/29 00:55:17;;;;;;;13.32;6.43;;;6.60;99.90;;;;;;5074550;28;20036;-76
2020/12/29 00:57:43;;;;;;;10.13;6.03;;;6.60;99.90;;;;;;5073266;28;20508;-75
2020/12/29 01:00:08;;;;;;;9.35;5.25;;;6.80;99.90;;;;;;5074324;28;20396;-75
2020/12/29 01:02:34;;;;;;;12.68;6.22;;;6.70;99.90;;;;;;5075881;28;20021;-75
2020/12/29 01:04:59;;;;;;;10.60;6.43;;;6.60;99.90;;;;;;5058686;28;20454;-75
2020/12/29 01:07:25;;;;;;;13.65;7.30;;;6.60;99.90;;;;;;5064268;28;20033;-76
2020/12/29 01:09:51;;;;;;;11.00;6.53;;;6.60;99.90;;;;;;5074278;28;20131;-77
2020/12/29 01:12:16;;;;;;;11.23;6.20;;;6.70;99.90;;;;;;5073959;28;20032;-75
2020/12/29 01:14:42;;;;;;;9.88;5.88;;;6.60;99.90;;;;;;5074489;28;20035;-76
2020/12/29 01:17:08;;;;;;;10.88;6.72;;;6.60;99.90;;;;;;5073799;28;20041;-75
2020/12/29 01:19:33;;;;;;;13.25;6.78;;;6.50;99.90;;;;;;5074101;28;20473;-75
2020/12/29 01:21:59;;;;;;;11.45;7.18;;;6.50;99.90;;;;;;5072980;28;20469;-76
2020/12/29 01:24:25;;;;;;;12.57;7.47;;;6.50;99.90;;;;;;5074019;28;20488;-76
2020/12/29 01:26:51;;;;;;;11.82;6.35;;;6.60;99.90;;;;;;5074572;28;20032;-75
2020/12/29 01:29:16;;;;;;;12.82;7.18;;;6.50;99.90;;;;;;5073408;28;20125;-75
2020/12/29 01:31:42;;;;;;;13.52;7.07;;;6.50;99.90;;;;;;5073601;28;20131;-76
2020/12/29 01:34:08;;;;;;;11.65;7.03;;;6.40;99.90;;;;;;5072794;28;20032;-75
2020/12/29 01:36:34;;;;;;;13.15;7.03;;;6.40;99.90;;;;;;5073524;28;20135;-75
2020/12/29 01:38:59;;;;;;;10.07;6.80;;;6.40;99.90;;;;;;5074475;28;20032;-75
2020/12/29 01:41:25;;;;;;;14.95;7.57;;;6.40;99.90;;;;;;5054280;28;20362;-75
2020/12/29 01:43:51;;;;;;;14.00;7.57;;;6.50;99.90;;;;;;5063857;28;20405;-75
2020/12/29 01:46:17;;;;;;;12.60;7.22;;;6.40;99.90;;;;;;5052438;28;20501;-75
2020/12/29 01:48:43;;;;;;;13.65;7.15;;;6.40;99.90;;;;;;5058607;28;20036;-75
2020/12/29 01:51:09;;;;;;;15.13;6.95;;;6.30;99.90;;;;;;5073274;28;20028;-75
2020/12/29 01:53:39;;;;;;;12.02;7.45;;;6.20;99.90;;;;;;5074889;28;20012;-76
2020/12/29 01:56:08;;;;;;;10.40;6.72;;;6.20;99.90;;;;;;5072028;28;20370;-76
2020/12/29 01:58:37;;;;;;;11.77;7.65;;;6.20;99.90;;;;;;5073506;28;20098;-75
2020/12/29 02:01:03;;;;;;;11.82;6.85;;;6.10;99.90;;;;;;5073333;28;20036;-76
2020/12/29 02:03:28;;;;;;;13.65;6.85;;;6.10;99.90;;;;;;5073577;28;20029;-75
2020/12/29 02:05:55;;;;;;;10.77;6.70;;;6.00;99.90;;;;;;5073804;28;20025;-75
2020/12/29 02:08:20;;;;;;;12.20;7.03;;;5.90;99.90;;;;;;5072111;28;20462;-77
2020/12/29 02:10:46;;;;;;;10.65;7.03;;;5.80;99.90;;;;;;5057938;28;20119;-76
2020/12/29 02:13:12;;;;;;;11.70;7.38;;;5.80;99.90;;;;;;5053035;28;20087;-76
2020/12/29 02:15:37;;;;;;;10.45;6.32;;;5.80;99.90;;;;;;5052965;28;20025;-76
2020/12/29 02:18:03;;;;;;;11.45;6.78;;;5.80;99.90;;;;;;5054357;28;20029;-74
2020/12/29 02:20:29;;;;;;;11.40;7.38;;;5.80;99.90;;;;;;5071498;28;20034;-75
2020/12/29 02:22:55;;;;;;;12.00;6.45;;;5.80;99.90;;;;;;5072538;28;20419;-76
2020/12/29 02:25:20;;;;;;;10.38;6.40;;;5.70;99.90;;;;;;5062077;28;20021;-76
2020/12/29 02:27:50;;;;;;;12.02;7.30;;;5.70;99.90;;;;;;5057277;28;20033;-76
2020/12/29 02:30:17;;;;;;;11.57;6.72;;;5.60;99.90;;;;;;5072458;28;20036;-75
2020/12/29 02:32:43;;;;;;;11.65;7.00;;;5.70;99.90;;;;;;5073898;28;20024;-74
2020/12/29 02:35:10;;;;;;;12.57;7.28;;;5.70;99.90;;;;;;5072647;28;20435;-74
2020/12/29 02:37:36;;;;;;;11.98;7.22;;;5.70;99.90;;;;;;5072312;28;20559;-77
2020/12/29 02:40:03;;;;;;;11.35;7.20;;;5.70;99.90;;;;;;5072360;28;20033;-75
2020/12/29 02:42:29;;;;;;;12.57;7.63;;;5.70;99.90;;;;;;5071907;28;20420;-75
2020/12/29 02:44:55;;;;;;;12.57;6.70;;;5.60;99.90;;;;;;5074066;28;20024;-75
2020/12/29 02:47:20;;;;;;;11.45;6.68;;;5.60;99.90;;;;;;5072208;28;20071;-75
2020/12/29 02:49:46;;;;;;;12.48;6.65;;;5.60;99.90;;;;;;5072248;28;20052;-76
2020/12/29 02:52:12;;;;;;;13.45;6.30;;;5.70;99.90;;;;;;5072164;28;20040;-76
2020/12/29 02:54:38;;;;;;;9.88;6.43;;;5.60;99.90;;;;;;5071951;28;20039;-77
2020/12/29 02:57:03;;;;;;;10.73;6.82;;;5.60;99.90;;;;;;5073549;28;20031;-76
2020/12/29 02:59:30;;;;;;;9.27;5.88;;;5.60;99.90;;;;;;5071894;28;20070;-77
2020/12/29 03:01:57;;;;;;;8.55;5.72;;;5.70;99.90;;;;;;5072234;28;20465;-75
2020/12/29 03:04:23;;;;;;;8.73;5.38;;;5.80;99.90;;;;;;5071939;28;20137;-76
2020/12/29 03:06:48;;;;;;;11.75;5.53;;;5.70;99.90;;;;;;5070936;28;20394;-75
2020/12/29 03:09:15;;;;;;;8.70;5.47;;;5.70;99.90;;;;;;5071922;28;20035;-76
2020/12/29 03:11:41;;;;;;;8.13;5.18;;;5.80;99.90;;;;;;5072473;28;20020;-75
2020/12/29 03:14:08;;;;;;;10.38;5.68;;;5.80;99.90;;;;;;5071738;28;20098;-75
2020/12/29 03:16:34;;;;;;;9.40;5.50;;;5.80;99.90;;;;;;5071745;28;20089;-74
2020/12/29 03:19:03;;;;;;;8.50;5.60;;;5.90;99.90;;;;;;5071809;28;20484;-77
2020/12/29 03:21:29;;;;;;;9.23;5.70;;;5.80;99.90;;;;;;5071854;28;20040;-75
2020/12/29 03:23:56;;;;;;;8.55;5.65;;;5.80;99.90;;;;;;5073527;28;20134;-76
2020/12/29 03:26:22;;;;;;;10.52;5.72;;;5.80;99.90;;;;;;5069148;28;20413;-75
2020/12/29 03:28:48;;;;;;;8.57;5.35;;;5.70;99.90;;;;;;5071715;28;20036;-76
2020/12/29 03:31:15;;;;;;;8.80;6.05;;;5.70;99.90;;;;;;5070279;28;20051;-76
2020/12/29 03:33:41;;;;;;;7.25;4.93;;;5.60;99.90;;;;;;5071467;28;20028;-76
2020/12/29 03:36:07;;;;;;;7.60;5.25;;;5.50;99.90;;;;;;5071201;28;20580;-76
2020/12/29 03:38:33;;;;;;;8.52;5.50;;;5.50;99.90;;;;;;5073248;28;20050;-75
2020/12/29 03:40:59;;;;;;;9.98;5.00;;;5.50;99.90;;;;;;5071636;28;20465;-75
2020/12/29 03:43:24;;;;;;;8.52;4.80;;;5.40;99.90;;;;;;5071762;28;20043;-74
2020/12/29 03:45:51;;;;;;;9.63;6.18;;;5.50;99.90;;;;;;5071272;28;20299;-75
2020/12/29 03:48:20;;;;;;;9.20;5.03;;;5.40;99.90;;;;;;5071088;28;20031;-75
2020/12/29 03:50:46;;;;;;;9.55;5.60;;;5.40;99.90;;;;;;5072035;28;20426;-75
2020/12/29 03:53:12;;;;;;;8.02;4.72;;;5.30;99.90;;;;;;5072521;28;20087;-76
2020/12/29 03:55:38;;;;;;;10.20;5.60;;;5.30;99.90;;;;;;5075726;28;20033;-76
2020/12/29 03:58:04;;;;;;;7.75;5.43;;;5.30;99.90;;;;;;5075513;28;20445;-76
2020/12/29 04:00:31;;;;;;;8.10;5.57;;;5.30;99.90;;;;;;5075893;28;20369;-75
2020/12/29 04:02:57;;;;;;;7.53;4.50;;;5.20;99.80;;;;;;5077083;28;20040;-76
2020/12/29 04:05:22;;;;;;;7.13;4.70;;;5.00;99.90;;;;;;5074933;28;20442;-76
2020/12/29 04:07:48;;;;;;;7.05;5.10;;;5.10;99.90;;;;;;5075360;28;20051;-76
2020/12/29 04:10:14;;;;;;;7.57;4.90;;;5.00;99.90;;;;;;5074766;28;20059;-74
2020/12/29 04:12:40;;;;;;;8.02;4.93;;;5.10;99.90;;;;;;5075106;28;20457;-76
2020/12/29 04:15:06;;;;;;;6.80;4.85;;;5.20;99.90;;;;;;5074426;28;20412;-74
2020/12/29 04:17:38;;;;;;;8.55;5.05;;;5.50;99.90;;;;;;5077072;28;20020;-74
2020/12/29 04:20:09;;;;;;;7.07;4.82;;;5.30;99.90;;;;;;5074911;28;20424;-75
2020/12/29 04:22:36;;;;;;;6.30;4.50;;;5.30;99.80;;;;;;5074969;28;20102;-76
2020/12/29 04:25:03;;;;;;;7.28;5.10;;;5.40;99.80;;;;;;5074940;28;20068;-75
2020/12/29 04:27:29;;;;;;;8.38;5.20;;;5.40;99.90;;;;;;5074928;28;20035;-76
2020/12/29 04:29:54;;;;;;;10.82;5.60;;;5.30;99.80;;;;;;5076729;28;20095;-76
2020/12/29 04:32:21;;;;;;;8.23;4.95;;;5.20;99.90;;;;;;5074958;28;20025;-76
2020/12/29 04:34:47;;;;;;;8.02;4.88;;;5.30;99.80;;;;;;5074781;28;20041;-76
2020/12/29 04:37:14;;;;;;;9.35;5.70;;;5.20;99.80;;;;;;5074526;28;20474;-76
2020/12/29 04:39:40;;;;;;;8.65;5.40;;;5.20;99.90;;;;;;5073750;28;20039;-75
2020/12/29 04:42:12;;;;;;;12.82;6.32;;;5.20;99.90;;;;;;5074839;28;20094;-74
2020/12/29 04:44:42;;;;;;;9.88;5.93;;;5.20;99.90;;;;;;5076380;28;20020;-75
2020/12/29 04:47:10;;;;;;;9.35;5.30;;;5.20;99.90;;;;;;5074691;28;20059;-75
2020/12/29 04:49:36;;;;;;;9.65;5.20;;;5.30;99.90;;;;;;5074741;28;20155;-75
2020/12/29 04:52:07;;;;;;;9.13;5.95;;;5.30;99.90;;;;;;5074592;28;20486;-75
2020/12/29 04:54:35;;;;;;;9.52;6.28;;;5.20;99.90;;;;;;5074395;28;20033;-75
2020/12/29 04:57:02;;;;;;;;;;;5.10;99.70;;;;;;5075331;28;20024;-75
2020/12/29 04:59:29;;;;;;;8.10;5.07;;;5.00;99.80;;;;;;5073640;28;19919;-75
2020/12/29 05:01:55;;;;;;;8.65;5.38;;;4.90;99.80;;;;;;5074316;28;20264;-75
2020/12/29 05:04:22;;;;;;;8.43;5.53;;;4.80;99.80;;;;;;5073875;28;20045;-75
2020/12/29 05:06:49;;;;;;;10.90;5.53;;;5.00;99.90;;;;;;5074323;28;20033;-73
2020/12/29 05:09:16;;;;;;;9.80;5.68;;;4.80;99.70;;;;;;5074057;28;20413;-74
2020/12/29 05:11:42;;;;;;;9.32;5.85;;;4.70;99.70;;;;;;5075670;28;20013;-74
2020/12/29 05:14:08;;;;;;;8.98;6.03;;;4.60;99.70;;;;;;5074237;28;20051;-74
2020/12/29 05:16:38;;;;;;;9.20;5.82;;;4.60;99.90;;;;;;5074148;28;20037;-75
2020/12/29 05:19:12;;;;;;;9.50;6.25;;;4.70;99.90;;;;;;5074234;28;20060;-74
2020/12/29 05:21:40;;;;;;;9.38;6.25;;;4.70;99.90;;;;;;5074177;28;20043;-74
2020/12/29 05:24:16;;;;;;;9.40;6.57;;;4.50;99.60;;;;;;5073014;28;20024;-74
2020/12/29 05:26:44;;;;;;;11.27;6.20;;;4.30;99.70;;;;;;5075651;28;20107;-75
2020/12/29 05:29:11;;;;;;;10.88;6.63;;;4.40;99.80;;;;;;5073951;28;20109;-74
2020/12/29 05:31:39;;;;;;;11.23;6.32;;;4.40;99.60;;;;;;5073993;28;20040;-74
2020/12/29 05:34:05;;;;;;;14.15;6.95;;;4.30;99.50;;;;;;5073860;28;20037;-74
2020/12/29 05:36:38;;;;;;;8.85;6.05;;;4.30;99.80;;;;;;5073328;28;20051;-74
2020/12/29 05:39:09;;;;;;;11.38;6.78;;;4.10;99.70;;;;;;5075328;28;20474;-74
2020/12/29 05:41:46;;;;;;;10.93;6.68;;;4.10;99.90;;;;;;5074062;28;20043;-74
2020/12/29 05:44:26;;;;;;;11.85;8.02;;;4.10;99.90;;;;;;5072218;28;20040;-75
2020/12/29 05:46:53;;;;;;;13.05;7.28;;;4.10;99.90;;;;;;5073419;28;20082;-74
2020/12/29 05:49:20;;;;;;;10.40;6.50;;;4.00;99.90;;;;;;5073508;28;20046;-75
2020/12/29 05:51:53;;;;;;;9.52;6.47;;;4.00;99.90;;;;;;5073533;28;20040;-75
2020/12/29 05:54:20;;;;;;;10.77;6.20;;;4.00;99.80;;;;;;5073288;28;20020;-75
2020/12/29 05:56:47;;;;;;;13.70;6.53;;;4.00;99.70;;;;;;5074823;28;20043;-76
2020/12/29 05:59:14;;;;;;;10.35;6.70;;;4.00;99.70;;;;;;5073233;28;20469;-75
2020/12/29 06:01:45;;;;;;;8.40;5.68;;;4.00;99.70;;;;;;5073107;28;20123;-76
2020/12/29 06:04:11;;;;;;;10.48;6.55;;;4.00;99.70;;;;;;5072961;28;20024;-75
2020/12/29 06:06:39;;;;;;;8.80;6.00;;;4.10;99.70;;;;;;5073315;28;20028;-76
2020/12/29 06:09:12;;;;;;;10.98;6.38;;;4.20;99.70;;;;;;5074588;28;20054;-76
2020/12/29 06:11:54;;;;;;;11.40;6.45;;;4.10;99.70;;;;;;5073459;28;20055;-75
2020/12/29 06:14:25;;;;;;;13.38;6.43;;;4.10;99.70;;;;;;5071667;28;20024;-76
2020/12/29 06:16:53;;;;;;;11.18;6.43;;;4.20;99.70;;;;;;5071619;28;20064;-74
2020/12/29 06:19:28;;;;;;;;;;;4.10;99.60;;;;;;5073213;28;20498;-74
2020/12/29 06:22:04;;;;;;;9.52;6.07;;;4.10;99.50;;;;;;5072754;28;19908;-73
2020/12/29 06:24:32;;;;;;;10.43;6.40;;;4.20;99.60;;;;;;5072695;28;20461;-76
2020/12/29 06:27:03;;;;;;;12.18;6.10;;;4.10;99.70;;;;;;5074315;28;20024;-75
2020/12/29 06:29:39;;;;;;;10.77;6.32;;;4.20;99.60;;;;;;5072659;28;20036;-75
2020/12/29 06:32:12;;;;;;;10.55;6.03;;;4.20;99.50;;;;;;5072401;28;20040;-75
2020/12/29 06:34:39;;;;;;;10.32;6.47;;;4.20;99.50;;;;;;5072103;28;20036;-76
2020/12/29 06:37:22;;;;;;;9.98;6.40;;;4.20;99.40;;;;;;5072212;28;20044;-75
2020/12/29 06:39:59;;;;;;;16.27;8.65;;;4.00;99.30;;;;;;5072498;28;20040;-75
2020/12/29 06:42:25;;;;;;;11.50;6.27;;;4.00;99.60;;;;;;5071318;28;20112;-75
2020/12/29 06:44:56;;;;;;;10.07;6.47;;;4.00;99.50;;;;;;5073961;28;20269;-75
2020/12/29 06:47:23;;;;;;;11.63;6.63;;;3.90;99.50;;;;;;5072500;28;20498;-74
2020/12/29 06:49:51;;;;;;;12.20;7.22;;;3.90;99.50;;;;;;5072018;28;20406;-75
2020/12/29 06:52:30;;;;;;;11.35;6.70;;;3.90;99.60;;;;;;5071016;28;20055;-75
2020/12/29 06:54:57;;;;;;;9.25;5.80;;;4.00;99.70;;;;;;5072070;28;20024;-75
2020/12/29 06:57:35;;;;;;;12.13;6.25;;;4.10;99.80;;;;;;5071876;28;20112;-74
2020/12/29 07:00:15;;;;;;;12.30;6.55;;;4.10;99.90;;;;;;5073863;28;20346;-74
2020/12/29 07:02:41;;;;;;;10.38;6.65;;;4.20;99.90;;;;;;5072217;28;20036;-75
2020/12/29 07:05:22;;;;;;;11.20;5.90;;;4.40;99.90;;;;;;5071992;28;20033;-75
2020/12/29 07:08:02;;;;;;;8.13;5.50;;;4.40;99.80;;;;;;5071813;28;20032;-75
2020/12/29 07:10:36;;;;;;;12.02;5.70;;;4.50;99.90;;;;;;5071621;28;20035;-76
2020/12/29 07:13:13;;;;;;;9.05;5.35;;;4.50;99.50;;;;;;5071741;28;20037;-77
2020/12/29 07:15:51;;;;;;;10.43;5.85;;;4.60;99.60;;;;;;5071860;28;20029;-76
2020/12/29 07:18:25;;;;;;;9.52;5.25;;;4.70;99.50;;;;;;5071793;28;20052;-75
2020/12/29 07:20:53;;;;;;;9.73;5.50;;;4.60;99.50;;;;;;5073344;28;20016;-76
2020/12/29 07:23:21;;;;;;;8.63;5.50;;;4.70;99.40;;;;;;5071810;28;20050;-76
2020/12/29 07:25:52;;;;;;;7.53;5.55;;;4.70;99.50;;;;;;5071385;28;20041;-76
2020/12/29 07:28:23;;;;;;;9.82;5.90;;;4.80;99.50;;;;;;5071354;28;20036;-75
2020/12/29 07:30:49;;;;;;;9.23;5.18;;;4.80;99.40;;;;;;5071684;28;20040;-75
2020/12/29 07:33:23;;;;;;;7.63;5.25;;;4.90;99.40;;;;;;5071703;28;20482;-75
2020/12/29 07:35:50;;;;;;;8.55;4.95;;;4.90;99.30;;;;;;5072913;28;20059;-75
2020/12/29 07:38:21;;;;;;;7.82;5.47;;;4.90;99.20;;;;;;5071406;28;20478;-77
2020/12/29 07:40:47;;;;;;;11.98;5.70;;;4.90;99.30;;;;;;5071466;28;20049;-75
2020/12/29 07:43:13;;;;;;;8.32;5.30;;;4.90;99.20;;;;;;5070545;28;20039;-73
2020/12/29 07:45:39;;;;;;;9.27;5.10;;;4.90;99.30;;;;;;5071608;28;20052;-74
2020/12/29 07:48:06;;;;;;;8.38;5.60;;;4.90;99.40;;;;;;5073083;28;20426;-75
2020/12/29 07:50:34;;;;;;;16.60;5.88;;;4.90;99.50;;;;;;5071925;28;20484;-74
2020/12/29 07:53:06;;;;;;;9.35;5.75;;;4.90;99.40;;;;;;5070927;28;20048;-77
2020/12/29 07:55:33;;;;;;;9.73;5.88;;;4.80;99.40;;;;;;5071566;28;20541;-76
2020/12/29 07:58:05;;;;;;;11.85;5.82;;;4.70;99.50;;;;;;5071543;28;20036;-73
2020/12/29 08:00:36;;;;;;;12.38;5.20;;;4.90;99.70;;;;;;5071706;28;20037;-74
2020/12/29 08:03:02;;;;;;;12.00;5.93;;;4.90;99.60;;;;;;5072813;28;20086;-74
2020/12/29 08:05:29;;;;;;;11.70;5.50;;;4.90;99.40;;;;;;5071455;28;20037;-75
2020/12/29 08:07:59;;;;;;;9.75;5.13;;;4.90;99.40;;;;;;5071677;28;20454;-77
2020/12/29 08:10:30;;;;;;;10.32;5.95;;;5.00;99.50;;;;;;5071109;28;20451;-77
2020/12/29 08:13:07;;;;;;;12.05;5.72;;;5.00;99.50;;;;;;5071300;28;20048;-77
2020/12/29 08:15:39;;;;;;;10.68;5.57;;;5.00;99.40;;;;;;5071414;28;20056;-77
2020/12/29 08:18:16;;;;;;;15.77;7.32;;;5.00;99.50;;;;;;5072949;28;20032;-78
2020/12/29 08:20:48;;;;;;;24.55;8.30;;;5.20;99.60;;;;;;5070504;28;20128;-75
2020/12/29 08:23:19;;;;;;;20.08;10.57;;;5.10;99.40;;;;;;5071181;28;20024;-81
2020/12/29 08:25:52;;;;;;;12.23;6.97;;;5.30;99.20;;;;;;5071052;28;20032;-76
2020/12/29 08:28:19;;;;;;;18.13;9.90;;;5.30;99.10;;;;;;5070069;28;20036;-76
2020/12/29 08:30:45;;;;;;;10.40;6.60;;;5.30;99.20;;;;;;5069959;28;20095;-76
2020/12/29 08:33:14;;;;;;;10.80;6.07;;;5.50;99.20;;;;;;5071040;28;20074;-77
2020/12/29 08:35:49;;;;;;;10.63;5.88;;;5.50;99.30;;;;;;5072232;28;20127;-76
2020/12/29 08:38:25;;;;;;;16.65;7.35;;;5.60;99.30;;;;;;5069908;28;20094;-75
2020/12/29 08:41:07;;;;;;;13.27;6.20;;;5.60;99.30;;;;;;5073669;28;20045;-76
2020/12/29 08:43:39;;;;;;;11.45;5.70;;;5.50;99.10;;;;;;5074717;28;20051;-75
2020/12/29 08:46:06;;;;;;;10.82;6.05;;;5.40;99.10;;;;;;5073730;28;20359;-76
2020/12/29 08:48:33;;;;;;;9.77;5.43;;;5.50;99.10;;;;;;5072034;28;20476;-75
2020/12/29 08:51:00;;;;;;;11.70;6.03;;;5.40;99.00;;;;;;5075196;28;20029;-74
2020/12/29 08:53:26;;;;;;;9.80;6.10;;;5.60;99.10;;;;;;5074652;28;20041;-74
2020/12/29 08:55:53;;;;;;;10.85;5.82;;;5.50;99.10;;;;;;5074275;28;20269;-74
2020/12/29 08:58:25;;;;;;;12.77;5.50;;;5.70;99.20;;;;;;5074275;28;20462;-75
2020/12/29 09:00:51;;;;;;;9.32;5.72;;;5.70;99.00;;;;;;5074305;28;20105;-74
2020/12/29 09:03:25;;;;;;;7.35;4.57;;;5.80;98.80;;;;;;5074365;28;20059;-77
2020/12/29 09:05:52;;;;;;;26.45;11.38;;;5.80;98.70;;;;;;5074826;28;20350;-74
2020/12/29 09:08:44;;;;;;;8.95;5.53;;;5.80;98.80;;;;;;5074434;28;20036;-74
2020/12/29 09:11:14;;;;;;;9.77;5.47;;;5.90;98.60;;;;;;5072907;28;20024;-73
2020/12/29 09:14:02;;;;;;;12.25;5.60;;;6.00;98.60;;;;;;5073854;28;20037;-74
2020/12/29 09:16:28;;;;;;;8.82;4.68;;;5.90;98.30;;;;;;5073728;28;20624;-75
2020/12/29 09:18:54;;;;;;;7.43;5.10;;;6.00;98.40;;;;;;5073273;28;20041;-75
2020/12/29 09:21:21;;;;;;;9.23;5.13;;;6.00;98.40;;;;;;5072832;28;20469;-74
2020/12/29 09:24:01;;;;;;;8.32;5.10;;;6.20;98.30;;;;;;5075477;28;20024;-72
2020/12/29 09:26:27;;;;;;;13.02;6.60;;;6.20;98.30;;;;;;5073859;28;20115;-74
2020/12/29 09:28:53;;;;;;;8.05;4.60;;;6.30;98.30;;;;;;5073561;28;20497;-77
2020/12/29 09:31:29;;;;;;;7.45;4.63;;;6.30;98.20;;;;;;5073614;28;20064;-77
2020/12/29 09:33:57;;;;;;;10.20;4.60;;;6.50;98.30;;;;;;5073779;28;20082;-77
2020/12/29 09:36:25;;;;;;;8.50;4.78;;;6.60;98.20;;;;;;5072388;28;20060;-74
2020/12/29 09:38:55;;;;;;;7.93;4.45;;;6.50;98.10;;;;;;5074171;28;20119;-71
2020/12/29 09:41:21;;;;;;;9.35;4.53;;;6.70;97.90;;;;;;5072771;28;20033;-77
2020/12/29 09:43:48;;;;;;;7.07;4.72;;;6.70;97.80;;;;;;5073391;28;20055;-71
2020/12/29 09:46:14;;;;;;;12.02;5.85;;;6.70;97.80;;;;;;5073309;28;20028;-72
2020/12/29 09:48:40;;;;;;;7.05;4.50;;;6.70;97.80;;;;;;5073162;28;20041;-71
2020/12/29 09:51:06;;;;;;;7.75;4.43;;;6.80;97.70;;;;;;5072963;28;20025;-71
2020/12/29 09:53:32;;;;;;;10.25;4.50;;;6.70;97.50;;;;;;5074933;28;20024;-72
2020/12/29 09:55:58;;;;;;;7.22;4.72;;;6.60;97.90;;;;;;5073356;28;20093;-72
2020/12/29 09:58:24;;;;;;;11.05;4.47;;;6.50;97.60;;;;;;5073212;28;20123;-72
2020/12/29 10:00:50;;;;;;;6.70;4.40;;;6.60;97.80;;;;;;5072416;28;20036;-72
2020/12/29 10:03:17;;;;;;;6.40;4.22;;;6.60;97.90;;;;;;5073283;28;20403;-72
2020/12/29 10:05:43;;;;;;;6.90;4.25;;;6.70;97.80;;;;;;5074741;28;20021;-72
2020/12/29 10:08:13;;;;;;;7.47;4.65;;;6.70;97.90;;;;;;5071849;28;20346;-72
2020/12/29 10:10:39;;;;;;;8.75;4.85;;;6.70;97.80;;;;;;5073176;28;20476;-72
2020/12/29 10:13:04;;;;;;;9.00;4.85;;;6.70;97.80;;;;;;5072885;28;20033;-71
2020/12/29 10:15:31;;;;;;;10.23;4.68;;;6.60;97.90;;;;;;5072801;28;20104;-72
2020/12/29 10:17:57;;;;;;;7.60;4.50;;;6.70;98.00;;;;;;5074531;28;20025;-71
2020/12/29 10:20:22;;;;;;;12.25;5.05;;;6.70;97.90;;;;;;5073037;28;20040;-71
2020/12/29 10:22:48;;;;;;;7.55;4.38;;;6.80;97.70;;;;;;5072823;28;20362;-71
2020/12/29 10:25:14;;;;;;;11.48;4.90;;;6.80;97.60;;;;;;5071735;28;20454;-72
2020/12/29 10:27:47;;;;;;;10.82;5.03;;;6.70;97.80;;;;;;5072943;28;20040;-73
2020/12/29 10:30:13;;;;;;;8.80;4.80;;;6.80;97.70;;;;;;5072386;28;20359;-72
2020/12/29 10:32:39;;;;;;;13.35;4.50;;;6.80;97.50;;;;;;5074239;28;20020;-72
2020/12/29 10:35:06;;;;;;;9.38;5.25;;;6.90;97.70;;;;;;5072709;28;20032;-75
2020/12/29 10:37:31;;;;;;;8.90;5.03;;;6.90;97.70;;;;;;5072372;28;20159;-74
2020/12/29 10:39:57;;;;;;;8.02;4.93;;;6.90;97.40;;;;;;5072747;28;20143;-77
2020/12/29 10:42:23;;;;;;;8.63;5.25;;;6.80;97.60;;;;;;5072576;28;20446;-77
2020/12/29 10:44:48;;;;;;;12.75;4.65;;;7.10;97.60;;;;;;5073874;28;20035;-77
2020/12/29 10:47:15;;;;;;;9.27;4.85;;;7.30;97.40;;;;;;5072058;28;20385;-79
2020/12/29 10:49:41;;;;;;;8.90;4.72;;;7.20;97.50;;;;;;5072053;28;20040;-77
2020/12/29 10:52:06;;;;;;;13.68;4.82;;;7.20;97.20;;;;;;5072525;28;20039;-79
2020/12/29 10:54:32;;;;;;;8.02;4.60;;;7.20;97.10;;;;;;5072108;28;20361;-77
2020/12/29 10:56:58;;;;;;;8.55;4.30;;;7.20;97.10;;;;;;5072820;28;20024;-71
2020/12/29 10:59:23;;;;;;;5.32;3.60;;;7.20;97.10;;;;;;5072106;28;20040;-75
2020/12/29 11:01:56;;;;;;;15.75;4.65;;;7.50;97.70;;;;;;5071861;28;20582;-72
2020/12/29 11:04:25;;;;;;;9.60;5.00;;;7.70;97.10;;;;;;5071900;28;20094;-70
2020/12/29 11:06:51;;;;;;;5.93;3.95;;;7.80;97.20;;;;;;5072184;28;20036;-73
2020/12/29 11:09:18;;;;;;;14.27;4.45;;;7.90;96.80;;;;;;5072071;28;20028;-74
2020/12/29 11:11:44;;;;;;;7.05;4.15;;;8.10;96.50;;;;;;5072597;28;20035;-71
2020/12/29 11:14:10;;;;;;;8.43;4.05;;;8.00;95.90;;;;;;5072224;28;20385;-71
2020/12/29 11:16:35;;;;;;;6.35;3.97;;;7.90;95.90;;;;;;5071866;28;20037;-72
2020/12/29 11:19:01;;;;;;;6.80;4.68;;;7.80;96.00;;;;;;5071770;28;20041;-72
2020/12/29 11:21:26;;;;;;;7.80;4.60;;;7.80;95.90;;;;;;5071601;28;20116;-69
2020/12/29 11:23:53;;;;;;;10.88;4.55;;;7.90;96.00;;;;;;5073224;28;20024;-72
2020/12/29 11:26:23;;;;;;;6.80;4.07;;;7.80;96.00;;;;;;5070696;28;20453;-71
2020/12/29 11:28:49;;;;;;;6.00;4.15;;;7.80;95.90;;;;;;5071938;28;20033;-70
2020/12/29 11:31:20;;;;;;;10.57;4.20;;;7.90;95.90;;;;;;5070429;28;20025;-71
2020/12/29 11:33:46;;;;;;;7.50;4.03;;;7.90;95.70;;;;;;5071185;28;20029;-71
2020/12/29 11:36:19;;;;;;;7.70;4.07;;;7.90;95.60;;;;;;5069612;28;20041;-73
2020/12/29 11:38:45;;;;;;;8.18;4.25;;;7.90;95.60;;;;;;5071947;28;20021;-72
2020/12/29 11:41:12;;;;;;;7.28;3.70;;;7.80;95.40;;;;;;5071525;28;20032;-71
2020/12/29 11:43:38;;;;;;;9.88;4.82;;;7.80;95.50;;;;;;5071656;28;20032;-75
2020/12/29 11:46:05;;;;;;;8.73;4.60;;;7.90;95.60;;;;;;5071732;28;20098;-71
2020/12/29 11:48:32;;;;;;;6.60;3.90;;;7.90;95.50;;;;;;5071452;28;20093;-73
2020/12/29 11:50:58;;;;;;;7.27;4.60;;;7.90;95.20;;;;;;5073206;28;20403;-71
2020/12/29 11:53:23;;;;;;;7.20;4.60;;;8.10;95.40;;;;;;5071545;28;20024;-73
2020/12/29 11:55:49;;;;;;;8.48;4.55;;;8.10;95.20;;;;;;5071556;28;20036;-73
2020/12/29 11:58:15;;;;;;;9.82;4.70;;;8.10;95.00;;;;;;5071162;28;20060;-73
2020/12/29 12:00:41;;;;;;;9.75;4.80;;;8.00;94.80;;;;;;5071331;28;20131;-73
2020/12/29 12:03:07;;;;;;;10.43;4.20;;;7.90;95.00;;;;;;5071128;28;20066;-73
2020/12/29 12:05:32;;;;;;;7.78;4.72;;;7.90;95.00;;;;;;5072868;28;20032;-74
2020/12/29 12:07:58;;;;;;;7.60;4.47;;;7.90;94.90;;;;;;5071244;28;20028;-72
2020/12/29 12:10:24;;;;;;;10.45;5.45;;;7.90;94.90;;;;;;5071283;28;20040;-75
2020/12/29 12:12:49;;;;;;;14.50;5.30;;;8.00;95.10;;;;;;5071262;28;20035;-71
2020/12/29 12:15:15;;;;;;;7.38;4.38;;;7.90;94.70;;;;;;5075110;28;20025;-72
2020/12/29 12:17:41;;;;;;;9.30;4.72;;;7.80;94.70;;;;;;5075769;28;20070;-71
2020/12/29 12:20:06;;;;;;;11.57;5.38;;;7.70;94.70;;;;;;5075110;28;20132;-71
2020/12/29 12:22:32;;;;;;;11.70;4.70;;;7.70;94.90;;;;;;5075353;28;20131;-71
2020/12/29 12:24:58;;;;;;;8.45;4.70;;;7.70;95.70;;;;;;5074802;28;20055;-71
2020/12/29 12:27:24;;;;;;;7.97;4.45;;;7.50;94.90;;;;;;5075308;28;20029;-71
2020/12/29 12:29:49;;;;;;;11.32;4.72;;;7.50;95.10;;;;;;5076589;28;20033;-70
2020/12/29 12:32:15;;;;;;;14.35;5.90;;;7.60;97.00;;;;;;5073776;28;20071;-74
2020/12/29 12:34:41;;;;;;;9.23;4.90;;;7.70;95.30;;;;;;5074463;28;20319;-71
2020/12/29 12:37:07;;;;;;;9.95;4.97;;;7.50;95.00;;;;;;5074579;28;20049;-70
2020/12/29 12:39:33;;;;;;;12.10;5.15;;;7.60;95.50;;;;;;5074718;28;20048;-71
2020/12/29 12:41:59;;;;;;;10.63;5.57;;;7.60;95.00;;;;;;5076192;28;20017;-70
2020/12/29 12:44:24;;;;;;;7.80;4.30;;;7.60;95.00;;;;;;5055239;28;20037;-71
2020/12/29 12:46:50;;;;;;;11.38;5.25;;;7.50;94.90;;;;;;5053609;28;20045;-69
2020/12/29 12:49:15;;;;;;;8.60;4.20;;;7.40;95.00;;;;;;5054409;28;20028;-70
2020/12/29 12:51:47;;;;;;;9.25;4.40;;;7.40;95.00;;;;;;5054464;28;20512;-70
2020/12/29 12:54:13;;;;;;;10.75;5.50;;;7.40;95.00;;;;;;5054429;28;20025;-71
2020/12/29 12:56:42;;;;;;;8.55;4.50;;;7.30;94.90;;;;;;5055943;28;20028;-69